createdAt,value
2023-05-20T00:01:34.048Z,6.90
2023-05-20T00:04:02.080Z,6.70
2023-05-20T00:06:30.108Z,7.10
2023-05-20T00:08:59.781Z,6.30
2023-05-20T00:11:27.809Z,6.30
2023-05-20T00:13:55.613Z,6.70
2023-05-20T00:16:23.658Z,6.50
2023-05-20T00:18:51.598Z,7.10
2023-05-20T00:21:19.578Z,6.50
2023-05-20T00:23:47.413Z,6.60
2023-05-20T00:26:15.455Z,6.70
2023-05-20T00:28:43.464Z,6.60
2023-05-20T00:31:11.305Z,5.30
2023-05-20T00:33:39.221Z,5.70
2023-05-20T00:36:07.187Z,6.30
2023-05-20T00:38:34.976Z,5.60
2023-05-20T00:41:02.908Z,6.00
2023-05-20T00:43:30.821Z,5.50
2023-05-20T00:45:58.891Z,5.70
2023-05-20T00:48:32.984Z,5.80
2023-05-20T00:51:02.656Z,5.40
2023-05-20T00:53:30.479Z,5.80
2023-05-20T00:55:58.333Z,6.10
2023-05-20T00:58:26.290Z,5.90
2023-05-20T01:00:54.310Z,6.00
2023-05-20T01:03:22.442Z,5.00
2023-05-20T01:05:50.575Z,6.20
2023-05-20T01:08:19.043Z,5.40
2023-05-20T01:10:56.187Z,5.50
2023-05-20T01:13:30.698Z,5.00
2023-05-20T01:16:00.650Z,5.50
2023-05-20T01:18:31.263Z,5.30
2023-05-20T01:21:02.572Z,5.30
2023-05-20T01:23:48.874Z,5.10
2023-05-20T01:26:18.807Z,4.70
2023-05-20T01:28:51.241Z,4.90
2023-05-20T01:31:26.172Z,5.00
2023-05-20T01:33:58.277Z,5.70
2023-05-20T01:36:28.935Z,4.80
2023-05-20T01:38:58.510Z,5.00
2023-05-20T01:41:27.458Z,4.30
2023-05-20T01:43:56.270Z,4.40
2023-05-20T01:46:24.217Z,4.60
2023-05-20T01:48:52.276Z,4.20
2023-05-20T01:51:20.101Z,4.50
2023-05-20T01:53:47.968Z,4.30
2023-05-20T01:56:15.818Z,4.70
2023-05-20T01:58:43.725Z,4.20
2023-05-20T02:01:11.700Z,3.80
2023-05-20T02:03:39.633Z,4.00
2023-05-20T02:06:07.608Z,4.50
2023-05-20T02:08:35.745Z,4.00
2023-05-20T02:11:03.739Z,4.30
2023-05-20T02:13:31.637Z,3.90
2023-05-20T02:15:59.616Z,4.20
2023-05-20T02:18:27.623Z,4.30
2023-05-20T02:20:55.625Z,4.30
2023-05-20T02:23:23.482Z,4.00
2023-05-20T02:25:51.283Z,4.20
2023-05-20T02:28:19.100Z,4.30
2023-05-20T02:30:47.090Z,3.90
2023-05-20T02:33:15.080Z,3.90
2023-05-20T02:35:43.096Z,3.90
2023-05-20T02:38:12.699Z,4.50
2023-05-20T02:40:45.052Z,3.90
2023-05-20T02:43:12.980Z,3.80
2023-05-20T02:45:41.262Z,3.60
2023-05-20T02:48:09.514Z,3.80
2023-05-20T02:50:40.264Z,4.70
2023-05-20T02:53:08.564Z,3.80
2023-05-20T02:55:36.990Z,3.80
2023-05-20T02:58:04.843Z,4.00
2023-05-20T03:00:40.815Z,4.10
2023-05-20T03:03:10.700Z,3.90
2023-05-20T03:05:38.533Z,4.20
2023-05-20T03:08:10.850Z,4.30
2023-05-20T03:10:39.842Z,3.90
2023-05-20T03:13:11.184Z,3.90
2023-05-20T03:15:39.588Z,4.60
2023-05-20T03:18:11.068Z,4.30
2023-05-20T03:20:39.999Z,4.30
2023-05-20T03:23:08.721Z,4.10
2023-05-20T03:25:39.112Z,3.40
2023-05-20T03:28:07.017Z,4.20
2023-05-20T03:30:36.591Z,4.20
2023-05-20T03:33:05.855Z,3.80
2023-05-20T03:35:34.091Z,4.00
2023-05-20T03:38:02.244Z,3.90
2023-05-20T03:40:30.724Z,4.20
2023-05-20T03:42:58.520Z,4.20
2023-05-20T03:45:26.568Z,4.00
2023-05-20T03:48:04.355Z,4.30
2023-05-20T03:50:34.048Z,4.40
2023-05-20T03:53:02.194Z,4.80
2023-05-20T03:55:35.448Z,3.60
2023-05-20T03:58:04.003Z,4.50
2023-05-20T04:00:32.918Z,3.70
2023-05-20T04:03:01.478Z,3.90
2023-05-20T04:05:29.579Z,4.70
2023-05-20T04:07:57.956Z,4.10
2023-05-20T04:10:26.287Z,4.20
2023-05-20T04:12:54.160Z,4.60
2023-05-20T04:15:23.840Z,4.60
2023-05-20T04:17:55.787Z,4.70
2023-05-20T04:20:24.657Z,4.40
2023-05-20T04:22:55.316Z,4.30
2023-05-20T04:25:23.976Z,4.40
2023-05-20T04:27:54.140Z,4.20
2023-05-20T04:30:22.244Z,4.20
2023-05-20T04:32:51.295Z,4.10
2023-05-20T04:35:19.667Z,4.60
2023-05-20T04:37:48.977Z,4.20
2023-05-20T04:40:17.205Z,4.40
2023-05-20T04:42:45.416Z,3.90
2023-05-20T04:45:13.610Z,4.10
2023-05-20T04:47:44.296Z,4.70
2023-05-20T04:50:13.659Z,4.80
2023-05-20T04:52:43.681Z,4.50
2023-05-20T04:55:13.218Z,4.20
2023-05-20T04:57:42.525Z,3.80
2023-05-20T05:00:12.620Z,4.50
2023-05-20T05:02:40.837Z,4.10
2023-05-20T05:05:09.455Z,4.10
2023-05-20T05:07:37.363Z,3.90
2023-05-20T05:10:06.743Z,4.40
2023-05-20T05:12:34.723Z,4.40
2023-05-20T05:15:03.843Z,4.40
2023-05-20T05:17:31.848Z,5.00
2023-05-20T05:19:59.735Z,4.50
2023-05-20T05:22:28.992Z,4.70
2023-05-20T05:24:58.879Z,4.60
2023-05-20T05:27:26.795Z,4.90
2023-05-20T05:29:54.668Z,5.10
2023-05-20T05:32:22.815Z,4.60
2023-05-20T05:34:50.755Z,4.60
2023-05-20T05:37:19.240Z,5.80
2023-05-20T05:39:47.916Z,4.60
2023-05-20T05:42:16.071Z,5.00
2023-05-20T05:44:44.769Z,5.50
2023-05-20T05:47:12.951Z,5.60
2023-05-20T05:49:41.112Z,5.40
2023-05-20T05:52:09.028Z,5.40
2023-05-20T05:54:37.129Z,4.70
2023-05-20T05:57:06.521Z,4.80
2023-05-20T05:59:35.490Z,5.00
2023-05-20T06:02:03.778Z,13.20
2023-05-20T06:04:31.949Z,5.90
2023-05-20T06:07:00.697Z,5.40
2023-05-20T06:09:28.714Z,4.90
2023-05-20T06:11:56.999Z,5.60
2023-05-20T06:14:24.933Z,5.80
2023-05-20T06:16:52.866Z,4.40
2023-05-20T06:19:21.032Z,5.10
2023-05-20T06:21:48.936Z,4.40
2023-05-20T06:24:16.954Z,5.10
2023-05-20T06:26:45.913Z,4.80
2023-05-20T06:29:13.797Z,4.90
2023-05-20T06:31:42.026Z,4.70
2023-05-20T06:34:09.868Z,4.50
2023-05-20T06:36:37.783Z,5.70
2023-05-20T06:39:11.317Z,4.90
2023-05-20T06:41:40.311Z,4.70
2023-05-20T06:44:10.995Z,4.90
2023-05-20T06:46:59.536Z,5.10
2023-05-20T06:49:28.366Z,10.50
2023-05-20T06:51:56.333Z,4.90
2023-05-20T06:54:24.828Z,4.30
2023-05-20T06:56:53.000Z,5.00
2023-05-20T06:59:22.298Z,4.60
2023-05-20T07:01:50.349Z,5.20
2023-05-20T07:04:18.405Z,5.20
2023-05-20T07:06:47.201Z,5.50
2023-05-20T07:09:15.034Z,4.80
2023-05-20T07:11:43.594Z,5.10
2023-05-20T07:14:13.006Z,5.70
2023-05-20T07:16:41.547Z,4.50
2023-05-20T07:19:10.005Z,4.30
2023-05-20T07:21:37.977Z,4.90
2023-05-20T07:24:19.161Z,4.70
2023-05-20T07:26:47.103Z,4.60
2023-05-20T07:29:15.056Z,5.00
2023-05-20T07:31:43.076Z,5.10
2023-05-20T07:34:11.049Z,5.00
2023-05-20T07:36:38.984Z,5.60
2023-05-20T07:39:14.156Z,5.00
2023-05-20T07:41:43.922Z,4.90
2023-05-20T07:44:13.321Z,4.80
2023-05-20T07:46:45.260Z,4.90
2023-05-20T07:49:13.368Z,5.40
2023-05-20T07:51:41.729Z,5.50
2023-05-20T07:54:09.591Z,5.00
2023-05-20T07:56:38.684Z,5.30
2023-05-20T07:59:07.788Z,6.20
2023-05-20T08:01:43.157Z,5.60
2023-05-20T08:04:12.105Z,5.50
2023-05-20T08:06:41.338Z,5.00
2023-05-20T08:09:11.859Z,5.60
2023-05-20T08:11:42.076Z,5.60
2023-05-20T08:14:10.034Z,6.30
2023-05-20T08:16:42.551Z,6.70
2023-05-20T08:19:10.716Z,6.30
2023-05-20T08:21:39.197Z,6.70
2023-05-20T08:24:07.979Z,6.10
2023-05-20T08:26:36.800Z,7.00
2023-05-20T08:29:04.697Z,7.50
2023-05-20T08:31:33.244Z,6.90
2023-05-20T08:34:01.704Z,7.40
2023-05-20T08:36:29.731Z,7.00
2023-05-20T08:38:57.707Z,7.80
2023-05-20T08:41:25.825Z,7.70
2023-05-20T08:43:54.575Z,7.40
2023-05-20T08:46:23.546Z,7.30
2023-05-20T08:48:51.637Z,7.80
2023-05-20T08:51:23.847Z,7.50
2023-05-20T08:53:52.121Z,7.50
2023-05-20T08:56:21.828Z,8.00
2023-05-20T08:58:49.660Z,8.10
2023-05-20T09:01:17.993Z,7.40
2023-05-20T09:03:45.837Z,8.00
2023-05-20T09:06:21.534Z,8.00
2023-05-20T09:08:51.210Z,8.00
2023-05-20T09:11:22.267Z,7.70
2023-05-20T09:13:51.262Z,7.80
2023-05-20T09:16:19.222Z,8.40
2023-05-20T09:18:47.218Z,8.40
2023-05-20T09:21:15.166Z,6.90
2023-05-20T09:23:49.394Z,8.00
2023-05-20T09:26:18.461Z,8.50
2023-05-20T09:28:46.516Z,8.50
2023-05-20T09:31:15.014Z,7.50
2023-05-20T09:33:43.992Z,7.70
2023-05-20T09:36:14.626Z,8.20
2023-05-20T09:38:45.525Z,8.40
2023-05-20T09:41:15.419Z,8.40
2023-05-20T09:43:44.610Z,7.70
2023-05-20T09:46:13.333Z,8.50
2023-05-20T09:48:41.432Z,8.70
2023-05-20T09:51:12.009Z,8.70
2023-05-20T09:53:40.792Z,9.40
2023-05-20T09:56:08.881Z,8.80
2023-05-20T09:58:37.815Z,7.90
2023-05-20T10:01:07.689Z,8.70
2023-05-20T10:03:36.052Z,8.50
2023-05-20T10:06:24.306Z,8.60
2023-05-20T10:08:58.818Z,8.90
2023-05-20T10:12:11.901Z,7.90
2023-05-20T10:15:10.435Z,7.80
2023-05-20T10:18:26.855Z,7.60
2023-05-20T10:20:54.745Z,6.90
2023-05-20T10:23:31.077Z,14.60
2023-05-20T10:26:06.021Z,7.80
2023-05-20T10:28:36.942Z,8.10
2023-05-20T10:31:21.852Z,7.80
2023-05-20T10:33:53.560Z,8.40
2023-05-20T10:36:27.757Z,7.20
2023-05-20T10:39:00.111Z,8.20
2023-05-20T10:41:29.424Z,9.10
2023-05-20T10:44:03.242Z,7.80
2023-05-20T10:46:48.215Z,7.70
2023-05-20T10:49:25.139Z,8.50
2023-05-20T10:51:55.965Z,8.20
2023-05-20T10:54:24.027Z,7.70
2023-05-20T10:56:53.890Z,7.80
2023-05-20T10:59:22.559Z,8.10
2023-05-20T11:01:51.154Z,8.50
2023-05-20T11:04:19.670Z,8.50
2023-05-20T11:06:54.099Z,9.00
2023-05-20T11:09:23.349Z,8.40
2023-05-20T11:11:53.384Z,8.70
2023-05-20T11:14:22.117Z,8.80
2023-05-20T11:16:56.411Z,7.70
2023-05-20T11:19:26.394Z,8.00
2023-05-20T11:21:54.677Z,7.80
2023-05-20T11:24:26.633Z,11.30
2023-05-20T11:26:58.033Z,8.30
2023-05-20T11:29:27.002Z,8.10
2023-05-20T11:31:55.247Z,12.20
2023-05-20T11:34:26.382Z,8.80
2023-05-20T11:36:59.172Z,8.60
2023-05-20T11:39:30.605Z,8.10
2023-05-20T11:41:58.998Z,7.70
2023-05-20T11:44:26.860Z,8.30
2023-05-20T11:47:01.576Z,8.20
2023-05-20T11:49:31.254Z,6.80
2023-05-20T11:51:59.180Z,7.10
2023-05-20T11:54:27.120Z,7.50
2023-05-20T11:56:55.908Z,8.00
2023-05-20T11:59:24.917Z,7.80
2023-05-20T12:01:52.904Z,7.90
2023-05-20T12:04:20.900Z,7.10
2023-05-20T12:06:48.898Z,7.70
2023-05-20T12:09:17.260Z,7.60
2023-05-20T12:11:45.525Z,6.40
2023-05-20T12:14:13.425Z,7.10
2023-05-20T12:16:41.397Z,8.30
2023-05-20T12:19:09.346Z,7.00
2023-05-20T12:21:37.279Z,6.80
2023-05-20T12:24:09.357Z,8.50
2023-05-20T12:26:37.206Z,6.80
2023-05-20T12:29:05.027Z,7.60
2023-05-20T12:31:34.921Z,10.40
2023-05-20T12:34:03.205Z,8.30
2023-05-20T12:36:31.673Z,8.80
2023-05-20T12:38:59.573Z,7.70
2023-05-20T12:41:27.543Z,8.00
2023-05-20T12:43:55.488Z,7.40
2023-05-20T12:46:23.783Z,7.30
2023-05-20T12:48:52.295Z,7.60
2023-05-20T12:51:21.079Z,6.90
2023-05-20T12:53:49.061Z,8.30
2023-05-20T12:56:19.931Z,8.00
2023-05-20T12:58:48.570Z,7.40
2023-05-20T13:01:16.562Z,6.30
2023-05-20T13:03:44.776Z,7.40
2023-05-20T13:06:12.808Z,7.10
2023-05-20T13:08:40.712Z,7.50
2023-05-20T13:11:08.564Z,7.80
2023-05-20T13:13:36.717Z,7.60
2023-05-20T13:16:05.224Z,6.20
2023-05-20T13:18:33.097Z,6.60
2023-05-20T13:21:01.190Z,5.90
2023-05-20T13:23:29.081Z,6.90
2023-05-20T13:25:56.939Z,7.10
2023-05-20T13:28:24.784Z,6.80
2023-05-20T13:30:52.756Z,6.70
2023-05-20T13:33:20.788Z,7.30
2023-05-20T13:35:49.964Z,6.80
2023-05-20T13:38:20.077Z,7.90
2023-05-20T13:40:59.170Z,7.70
2023-05-20T13:43:27.050Z,8.50
2023-05-20T13:45:55.604Z,7.80
2023-05-20T13:48:23.536Z,7.10
2023-05-20T13:50:51.536Z,9.60
2023-05-20T13:53:19.373Z,8.20
2023-05-20T13:55:47.202Z,8.50
2023-05-20T13:58:15.207Z,9.40
2023-05-20T14:00:43.161Z,8.40
2023-05-20T14:03:11.695Z,7.40
2023-05-20T14:05:40.693Z,9.10
2023-05-20T14:08:12.402Z,8.50
2023-05-20T14:10:40.284Z,9.00
2023-05-20T14:13:10.535Z,8.00
2023-05-20T14:15:38.668Z,8.30
2023-05-20T14:18:06.578Z,11.30
2023-05-20T14:20:38.182Z,8.40
2023-05-20T14:23:06.348Z,8.10
2023-05-20T14:25:36.501Z,8.40
2023-05-20T14:28:04.975Z,12.30
2023-05-20T14:30:33.082Z,8.70
2023-05-20T14:33:01.302Z,7.80
2023-05-20T14:35:29.264Z,8.50
2023-05-20T14:37:59.582Z,8.30
2023-05-20T14:40:27.769Z,8.40
2023-05-20T14:42:55.702Z,9.50
2023-05-20T14:45:23.625Z,8.40
2023-05-20T14:47:51.792Z,8.80
2023-05-20T14:50:19.748Z,9.00
2023-05-20T14:52:47.648Z,9.80
2023-05-20T14:55:15.652Z,8.20
2023-05-20T14:57:45.539Z,8.80
2023-05-20T15:00:13.866Z,8.80
2023-05-20T15:02:41.924Z,8.40
2023-05-20T15:05:11.943Z,9.00
2023-05-20T15:07:40.060Z,7.50
2023-05-20T15:10:08.854Z,8.40
2023-05-20T15:12:36.761Z,8.50
2023-05-20T15:15:05.493Z,8.60
2023-05-20T15:17:33.392Z,8.30
2023-05-20T15:20:01.388Z,8.40
2023-05-20T15:22:29.634Z,9.50
2023-05-20T15:24:57.500Z,7.90
2023-05-20T15:27:25.673Z,9.30
2023-05-20T15:29:53.546Z,9.00
2023-05-20T15:32:21.584Z,8.80
2023-05-20T15:34:49.541Z,8.10
2023-05-20T15:37:17.638Z,8.70
2023-05-20T15:39:45.507Z,8.40
2023-05-20T15:42:13.988Z,8.40
2023-05-20T15:44:41.883Z,8.70
2023-05-20T15:47:09.765Z,9.40
2023-05-20T15:49:37.694Z,8.50
2023-05-20T15:52:05.979Z,8.90
2023-05-20T15:54:33.964Z,9.00
2023-05-20T15:57:02.490Z,8.80
2023-05-20T15:59:30.487Z,9.50
2023-05-20T16:01:58.694Z,8.90
2023-05-20T16:04:26.816Z,8.80
2023-05-20T16:06:55.045Z,8.90
2023-05-20T16:09:22.950Z,8.90
2023-05-20T16:11:51.081Z,9.30
2023-05-20T16:14:18.944Z,8.50
2023-05-20T16:16:46.896Z,9.20
2023-05-20T16:19:14.978Z,8.50
2023-05-20T16:21:42.855Z,9.20
2023-05-20T16:24:10.818Z,8.90
2023-05-20T16:26:38.707Z,8.70
2023-05-20T16:29:06.643Z,9.00
2023-05-20T16:31:34.743Z,9.20
2023-05-20T16:34:03.911Z,9.30
2023-05-20T16:36:32.056Z,11.30
2023-05-20T16:38:59.971Z,9.40
2023-05-20T16:41:27.907Z,9.40
2023-05-20T16:43:55.778Z,9.50
2023-05-20T16:46:23.639Z,9.50
2023-05-20T16:48:51.685Z,9.70
2023-05-20T16:51:19.658Z,11.20
2023-05-20T16:53:47.472Z,9.60
2023-05-20T16:56:15.571Z,9.80
2023-05-20T16:58:43.578Z,9.30
2023-05-20T17:01:11.639Z,9.60
2023-05-20T17:03:39.574Z,9.90
2023-05-20T17:06:07.493Z,10.10
2023-05-20T17:08:36.948Z,10.10
2023-05-20T17:11:04.964Z,10.00
2023-05-20T17:13:32.782Z,9.80
2023-05-20T17:16:00.983Z,12.40
2023-05-20T17:18:28.924Z,9.80
2023-05-20T17:20:56.789Z,10.00
2023-05-20T17:23:24.659Z,10.00
2023-05-20T17:25:52.578Z,10.10
2023-05-20T17:28:20.518Z,10.30
2023-05-20T17:30:48.333Z,9.50
2023-05-20T17:33:16.247Z,9.90
2023-05-20T17:35:44.390Z,8.70
2023-05-20T17:38:12.264Z,9.80
2023-05-20T17:40:40.360Z,9.70
2023-05-20T17:43:08.196Z,9.70
2023-05-20T17:45:36.164Z,9.80
2023-05-20T17:48:08.761Z,11.10
2023-05-20T17:50:38.696Z,9.70
2023-05-20T17:53:06.571Z,10.40
2023-05-20T17:55:36.355Z,10.80
2023-05-20T17:58:04.961Z,10.20
2023-05-20T18:00:41.996Z,10.40
2023-05-20T18:03:10.373Z,12.90
2023-05-20T18:05:38.458Z,10.60
2023-05-20T18:08:06.374Z,10.80
2023-05-20T18:10:34.573Z,10.40
2023-05-20T18:13:02.603Z,10.00
2023-05-20T18:15:30.529Z,11.10
2023-05-20T18:17:58.630Z,11.90
2023-05-20T18:20:26.490Z,11.30
2023-05-20T18:22:58.382Z,10.90
2023-05-20T18:25:26.828Z,11.20
2023-05-20T18:27:54.671Z,12.50
2023-05-20T18:30:23.401Z,11.50
2023-05-20T18:32:51.660Z,12.20
2023-05-20T18:35:19.864Z,12.00
2023-05-20T18:37:48.694Z,12.40
2023-05-20T18:40:16.737Z,11.60
2023-05-20T18:42:44.580Z,11.70
2023-05-20T18:45:12.491Z,12.50
2023-05-20T18:47:40.491Z,12.60
2023-05-20T18:50:09.026Z,12.40
2023-05-20T18:52:36.924Z,11.80
2023-05-20T18:55:05.929Z,12.60
2023-05-20T18:57:34.486Z,11.70
2023-05-20T19:00:04.036Z,12.20
2023-05-20T19:02:31.956Z,13.20
2023-05-20T19:04:59.909Z,12.50
2023-05-20T19:07:27.790Z,11.80
2023-05-20T19:09:56.822Z,15.30
2023-05-20T19:12:25.494Z,12.20
2023-05-20T19:14:53.526Z,12.40
2023-05-20T19:17:21.614Z,12.80
2023-05-20T19:19:49.657Z,12.70
2023-05-20T19:22:17.530Z,13.50
2023-05-20T19:24:45.602Z,14.10
2023-05-20T19:27:13.435Z,11.80
2023-05-20T19:29:41.313Z,12.70
2023-05-20T19:32:09.601Z,12.50
2023-05-20T19:34:37.990Z,12.50
2023-05-20T19:37:05.926Z,12.90
2023-05-20T19:39:33.970Z,14.30
2023-05-20T19:42:03.093Z,14.60
2023-05-20T19:44:31.561Z,13.60
2023-05-20T19:46:59.579Z,13.10
2023-05-20T19:49:29.300Z,12.80
2023-05-20T19:51:57.187Z,12.40
2023-05-20T19:54:27.104Z,13.70
2023-05-20T19:56:55.376Z,12.70
2023-05-20T19:59:23.379Z,16.00
2023-05-20T20:01:51.416Z,15.10
2023-05-20T20:04:19.450Z,13.40
2023-05-20T20:06:48.282Z,14.30
2023-05-20T20:09:16.199Z,13.40
2023-05-20T20:11:44.346Z,14.40
2023-05-20T20:14:13.510Z,13.80
2023-05-20T20:16:42.257Z,15.00
2023-05-20T20:19:11.800Z,13.30
2023-05-20T20:21:40.258Z,13.90
2023-05-20T20:24:08.076Z,12.80
2023-05-20T20:26:36.002Z,13.80
2023-05-20T20:29:03.968Z,14.10
2023-05-20T20:31:31.901Z,14.10
2023-05-20T20:33:59.776Z,14.20
2023-05-20T20:36:32.025Z,13.20
2023-05-20T20:39:04.835Z,13.60
2023-05-20T20:44:03.732Z,14.00
2023-05-20T20:46:31.923Z,13.50
2023-05-20T20:48:59.859Z,13.80
2023-05-20T20:51:27.749Z,14.60
2023-05-20T20:53:55.574Z,14.30
2023-05-20T20:56:23.824Z,13.40
2023-05-20T20:58:54.412Z,14.30
2023-05-20T21:01:23.471Z,14.10
2023-05-20T21:03:54.780Z,15.10
2023-05-20T21:06:22.839Z,14.10
2023-05-20T21:08:50.655Z,13.70
2023-05-20T21:11:19.209Z,14.70
2023-05-20T21:13:47.151Z,14.10
2023-05-20T21:16:15.267Z,14.40
2023-05-20T21:18:43.262Z,15.60
2023-05-20T21:21:14.060Z,14.80
2023-05-20T21:23:42.114Z,15.40
2023-05-20T21:26:10.003Z,14.80
2023-05-20T21:28:37.926Z,15.70
2023-05-20T21:31:06.145Z,15.10
2023-05-20T21:33:34.254Z,15.70
2023-05-20T21:36:02.253Z,14.90
2023-05-20T21:38:30.098Z,16.10
2023-05-20T21:40:58.601Z,15.30
2023-05-20T21:43:26.789Z,15.60
2023-05-20T21:45:54.648Z,15.70
2023-05-20T21:48:22.508Z,16.70
2023-05-20T21:50:50.751Z,15.10
2023-05-20T21:53:18.720Z,15.30
2023-05-20T21:55:46.601Z,14.60
2023-05-20T21:58:14.511Z,16.10
2023-05-20T22:00:42.863Z,14.80
2023-05-20T22:03:12.174Z,15.10
2023-05-20T22:05:45.830Z,15.90
2023-05-20T22:08:13.819Z,14.10
2023-05-20T22:10:41.681Z,15.40
2023-05-20T22:13:13.641Z,14.40
2023-05-20T22:15:42.072Z,15.30
2023-05-20T22:18:12.267Z,15.10
2023-05-20T22:20:40.729Z,15.30
2023-05-20T22:23:08.551Z,14.90
2023-05-20T22:25:36.770Z,16.10
2023-05-20T22:28:05.111Z,15.90
2023-05-20T22:30:32.953Z,16.20
2023-05-20T22:33:01.436Z,15.30
2023-05-20T22:35:29.347Z,16.50
2023-05-20T22:37:57.265Z,16.10
2023-05-20T22:40:25.161Z,16.20
2023-05-20T22:42:53.063Z,16.10
2023-05-20T22:45:20.940Z,19.80
2023-05-20T22:47:48.893Z,16.60
2023-05-20T22:50:18.159Z,16.40
2023-05-20T22:52:46.200Z,16.50
2023-05-20T22:55:14.052Z,16.00
2023-05-20T22:57:42.153Z,16.30
2023-05-20T23:00:14.538Z,17.00
2023-05-20T23:02:45.770Z,16.70
2023-05-20T23:05:13.760Z,15.80
2023-05-20T23:07:41.825Z,16.30
2023-05-20T23:10:09.978Z,18.70
2023-05-20T23:12:37.793Z,17.40
2023-05-20T23:15:06.704Z,16.80
2023-05-20T23:17:34.560Z,17.10
2023-05-20T23:20:07.388Z,17.40
2023-05-20T23:25:03.933Z,17.20
2023-05-20T23:27:32.784Z,17.20
2023-05-20T23:30:00.715Z,16.90
2023-05-20T23:32:28.823Z,16.80
2023-05-20T23:34:56.637Z,16.70
2023-05-20T23:37:24.590Z,17.30
2023-05-20T23:39:52.394Z,16.60
2023-05-20T23:42:20.408Z,17.10
2023-05-20T23:44:48.214Z,15.80
2023-05-20T23:47:15.982Z,15.90
2023-05-20T23:49:47.854Z,15.90
2023-05-20T23:52:17.032Z,17.00
2023-05-20T23:54:45.007Z,14.90
2023-05-20T23:57:12.803Z,16.40
2023-05-20T23:59:41.122Z,15.60
